Latest Coastal Weather Observations for Maria Island

IDT60701

Issued at 3:52 pm EST Sunday 15 September 2019 (issued every 10 minutes, with the page automatically refreshed every 10 minutes)

About coastal observations | Map of coastal stations | Coastal observations for TAS | Marine services | Other Formats
Station Details ID: 092124 Name: MARIA ISLAND (POINT LESUEUR) Lat: -42.66 Lon: 148.02 Height: 28.0 m
Data from the previous 72 hours. | See also: Recent months at Maria Island
Date/Time
EST
Wind Sea
Height
m
Swell Vis
km
Cloud Weather Temp
°C
Press
hPa
Rain since
9am
mm
Dir  Spd
kts
Gust
kts
Height
m
Period
s
Dir
15/03:30pm ESE 12 19 - - - - - - - 13.6 1006.4 0.0
15/03:00pm E 10 11 - - - - - - - 14.5 1006.8 0.0
15/02:30pm E 8 9 - - - - - - - 15.0 1007.2 0.0
15/02:00pm ESE 10 12 - - - - - - - 15.0 1007.6 0.0
15/01:30pm NNE 4 8 - - - - - - - 15.9 1007.5 0.0
15/01:00pm NW 9 11 - - - - - - - 16.2 1007.8 0.0
15/12:30pm NW 9 11 - - - - - - - 15.9 1008.2 0.0
15/12:00pm NW 10 13 - - - - - - - 15.9 1008.6 0.0
15/11:30am NNW 8 12 - - - - - - - 16.0 1008.8 0.0
15/11:00am N 8 11 - - - - - - - 15.6 1009.1 0.0
15/10:30am SSE 5 6 - - - - - - - 15.2 1009.0 0.0
15/10:00am SSE 12 16 - - - - - - - 14.1 1009.3 0.0
15/09:30am SSE 11 15 - - - - - - - 13.9 1009.3 0.0
15/09:00am S 2 6 - - - - - - - 13.8 1009.4 0.0
15/08:30am N 5 8 - - - - - - - 13.4 1009.0 0.0
15/08:00am N 10 12 - - - - - - - 12.7 1008.7 0.0
15/07:30am N 14 15 - - - - - - - 12.2 1008.2 0.0
15/07:00am N 16 19 - - - - - - - 12.1 1007.9 0.0
15/06:30am N 18 21 - - - - - - - 11.7 1007.5 0.0
15/06:00am N 18 21 - - - - - - - 11.7 1007.1 0.0
15/05:30am N 17 19 - - - - - - - 11.8 1007.0 0.0
15/05:00am N 19 22 - - - - - - - 11.4 1006.6 0.0
15/04:30am N 19 21 - - - - - - - 11.6 1006.9 0.0
15/04:00am N 22 25 - - - - - - - 11.5 1006.5 0.0
15/03:30am N 20 23 - - - - - - - 11.3 1006.7 0.0
15/03:00am N 19 22 - - - - - - - 11.3 1007.1 0.0
15/02:30am N 16 18 - - - - - - - 11.3 1007.6 0.0
15/02:00am N 17 22 - - - - - - - 11.4 1007.7 0.0
15/01:30am N 20 25 - - - - - - - 11.5 1007.8 0.0
15/01:00am N 22 25 - - - - - - - 11.6 1007.8 0.0
15/12:30am N 22 25 - - - - - - - 11.5 1008.2 0.0
15/12:00am N 19 22 - - - - - - - 11.7 1008.7 0.0
 
Date/Time
EST
Wind Sea
Height
m
Swell Vis
km
Cloud Weather Temp
°C
Press
hPa
Rain since
9am
mm
Dir  Spd
kts
Gust
kts
Height
m
Period
s
Dir
14/11:30pm N 17 21 - - - - - - - 12.1 1009.3 0.0
14/11:00pm N 18 20 - - - - - - - 12.3 1009.7 0.0
14/10:30pm N 24 27 - - - - - - - 12.9 1009.9 0.0
14/10:00pm N 23 27 - - - - - - - 13.8 1010.2 0.0
14/09:30pm N 17 21 - - - - - - - 13.8 1011.6 0.0
14/09:00pm NNW 16 19 - - - - - - - 13.9 1011.5 0.0
14/08:30pm NNW 16 18 - - - - - - - 13.4 1011.8 0.0
14/08:00pm NNW 16 19 - - - - - - - 13.0 1011.6 0.0
14/07:30pm NNW 19 21 - - - - - - - 13.3 1011.7 0.0
14/07:22pm NNW 20 21 - - - - - - - 13.6 1011.7 0.0
14/07:00pm NNE 13 15 - - - - - - - 12.7 1012.6 0.0
14/06:32pm NNE 15 26 - - - - - - - 13.4 1012.7 0.0
14/06:30pm NNE 16 26 - - - - - - - 13.4 1012.7 0.0
14/06:00pm N 18 21 - - - - - - - 12.8 1012.7 0.0
14/05:30pm N 14 16 - - - - - - - 13.7 1013.2 0.0
14/05:00pm NNE 9 11 - - - - - - - 14.3 1013.6 0.0
14/04:30pm NNE 4 6 - - - - - - - 15.2 1014.2 0.0
14/04:00pm NE 3 5 - - - - - - - 15.4 1014.4 0.0
14/03:30pm N 11 12 - - - - - - - 14.8 1014.7 0.0
14/03:00pm NNE 5 6 - - - - - - - 15.0 1015.3 0.0
14/02:30pm NE 7 10 - - - - - - - 15.1 1015.7 0.0
14/02:00pm ESE 10 13 - - - - - - - 14.1 1015.9 0.0
14/01:30pm NNE 5 6 - - - - - - - 14.8 1016.1 0.0
14/01:00pm NNE 4 5 - - - - - - - 14.8 1016.6 0.0
14/12:30pm NNE 4 5 - - - - - - - 14.5 1017.0 0.0
14/12:00pm E 3 6 - - - - - - - 14.5 1017.4 0.0
14/11:30am SSE 3 5 - - - - - - - 13.4 1018.0 0.0
14/11:00am SSE 4 5 - - - - - - - 12.8 1017.9 0.0
14/10:30am SSE 4 5 - - - - - - - 12.9 1018.1 0.0
14/10:00am SW 7 9 - - - - - - - 12.6 1018.2 0.0
14/09:30am WSW 2 4 - - - - - - - 12.3 1018.6 0.0
14/09:00am SW 8 12 - - - - - - - 11.9 1018.6 1.0
14/08:30am SW 8 11 - - - - - - - 11.5 1018.5 1.0
14/08:00am SW 11 14 - - - - - - - 11.0 1018.2 1.0
14/07:30am SW 14 16 - - - - - - - 10.7 1017.9 1.0
14/07:00am SW 11 13 - - - - - - - 10.5 1017.7 1.0
14/06:30am WSW 7 10 - - - - - - - 10.4 1017.5 1.0
14/06:00am WSW 6 9 - - - - - - - 9.9 1017.0 1.0
14/05:30am WSW 6 8 - - - - - - - 9.7 1016.8 1.0
14/05:00am WSW 9 12 - - - - - - - 9.8 1016.2 1.0
14/04:30am WSW 15 19 - - - - - - - 10.1 1015.7 1.0
14/04:00am WSW 13 18 - - - - - - - 10.0 1015.4 1.0
14/03:30am WSW 9 12 - - - - - - - 10.2 1015.4 1.0
14/03:00am W 10 12 - - - - - - - 9.7 1015.4 1.0
14/02:30am W 8 11 - - - - - - - 9.7 1015.2 1.0
14/02:00am WSW 6 7 - - - - - - - 9.6 1014.9 1.0
14/01:30am W 6 10 - - - - - - - 9.7 1014.9 1.0
14/01:00am WSW 7 11 - - - - - - - 10.1 1014.7 1.0
14/12:30am WSW 12 15 - - - - - - - 10.2 1014.1 1.0
14/12:00am W 11 15 - - - - - - - 10.3 1013.6 1.0
 
Date/Time
EST
Wind Sea
Height
m
Swell Vis
km
Cloud Weather Temp
°C
Press
hPa
Rain since
9am
mm
Dir  Spd
kts
Gust
kts
Height
m
Period
s
Dir
13/11:30pm W 13 18 - - - - - - - 10.0 1013.3 1.0
13/11:00pm WSW 17 21 - - - - - - - 10.6 1012.8 1.0
13/10:30pm WSW 11 15 - - - - - - - 10.4 1012.4 1.0
13/10:00pm WSW 12 15 - - - - - - - 10.6 1012.1 1.0
13/09:30pm WSW 13 15 - - - - - - - 10.5 1011.5 1.0
13/09:00pm WSW 10 13 - - - - - - - 10.5 1011.3 1.0
13/08:30pm WSW 9 12 - - - - - - - 10.2 1010.8 1.0
13/08:00pm W 15 18 - - - - - - - 9.9 1010.3 1.0
13/07:30pm WSW 25 33 - - - - - - - 10.0 1009.4 0.8
13/07:24pm SW 25 33 - - - - - - - 9.6 1009.5 0.6
13/07:00pm SSW 24 29 - - - - - - - 10.9 1009.7 0.0
13/06:30pm SSW 18 24 - - - - - - - 11.1 1008.5 0.0
13/06:24pm SSW 20 25 - - - - - - - 11.3 1008.5 0.0
13/06:00pm WSW 8 15 - - - - - - - 12.2 1008.7 0.0
13/05:30pm NNW 12 15 - - - - - - - 12.0 1008.1 0.0
13/05:00pm NNW 15 19 - - - - - - - 12.8 1007.7 0.0
13/04:30pm N 15 17 - - - - - - - 12.7 1007.7 0.0
13/04:00pm N 14 15 - - - - - - - 12.6 1007.9 0.0
13/03:30pm N 10 13 - - - - - - - 12.4 1008.7 0.0
13/03:00pm NNW 17 19 - - - - - - - 11.6 1008.6 0.0
13/02:30pm N 19 21 - - - - - - - 11.6 1008.5 0.0
13/02:00pm N 15 19 - - - - - - - 11.7 1009.2 0.0
13/01:30pm N 12 15 - - - - - - - 11.8 1011.0 0.0
13/01:00pm NNW 14 17 - - - - - - - 11.9 1012.4 0.0
13/12:30pm NW 16 19 - - - - - - - 12.1 1012.6 0.0
13/12:00pm N 15 18 - - - - - - - 11.8 1013.4 0.0
13/11:30am N 17 24 - - - - - - - 12.2 1013.9 0.0
13/11:00am N 14 16 - - - - - - - 11.7 1014.6 0.0
13/10:30am N 15 17 - - - - - - - 11.7 1015.1 0.0
13/10:00am N 15 17 - - - - - - - 11.4 1015.6 0.0
13/09:30am N 14 16 - - - - - - - 10.6 1016.0 0.0
13/09:00am N 11 14 - - - - - - - 10.1 1017.0 0.0
13/08:30am N 3 5 - - - - - - - 8.9 1017.6 0.0
13/08:00am NW 4 5 - - - - - - - 8.8 1018.0 0.0
13/07:30am NW 4 5 - - - - - - - 8.5 1017.9 0.0
13/07:00am NNW 4 6 - - - - - - - 8.0 1017.8 0.0
13/06:30am NNW 7 8 - - - - - - - 7.6 1018.2 0.0
13/06:00am NNW 6 7 - - - - - - - 7.3 1018.2 0.0
13/05:30am NW 7 8 - - - - - - - 7.2 1018.2 0.0
13/05:00am NW 8 9 - - - - - - - 7.1 1018.1 0.0
13/04:30am NNW 7 8 - - - - - - - 7.8 1017.8 0.0
13/04:00am NNW 9 9 - - - - - - - 8.3 1017.8 0.0
13/03:30am NNW 11 13 - - - - - - - 8.5 1017.7 0.0
13/03:00am NW 8 10 - - - - - - - 8.7 1017.7 0.0
13/02:30am NW 8 10 - - - - - - - 9.2 1017.8 0.0
13/02:00am W 9 11 - - - - - - - 9.3 1017.8 0.0
13/01:30am W 7 8 - - - - - - - 9.5 1018.1 0.0
13/01:00am WSW 10 13 - - - - - - - 9.8 1017.7 0.0
13/12:30am WSW 11 13 - - - - - - - 9.8 1017.7 0.0
13/12:00am WSW 10 13 - - - - - - - 9.6 1017.2 0.0
 
Date/Time
EST
Wind Sea
Height
m
Swell Vis
km
Cloud Weather Temp
°C
Press
hPa
Rain since
9am
mm
Dir  Spd
kts
Gust
kts
Height
m
Period
s
Dir
12/11:30pm WSW 10 16 - - - - - - - 10.0 1016.5 0.0
12/11:00pm WSW 9 12 - - - - - - - 10.1 1016.3 0.0
12/10:30pm WSW 9 14 - - - - - - - 10.1 1016.3 0.0
12/10:00pm W 10 13 - - - - - - - 10.1 1016.2 0.0
12/09:30pm WSW 13 19 - - - - - - - 10.4 1016.0 0.0
12/09:00pm WSW 20 27 - - - - - - - 10.7 1015.3 0.0
12/08:30pm SW 15 21 - - - - - - - 10.8 1015.0 0.0
12/08:00pm SW 10 18 - - - - - - - 10.8 1014.8 0.0
12/07:30pm SW 14 19 - - - - - - - 11.1 1014.2 0.0
12/07:00pm SW 12 18 - - - - - - - 11.3 1013.1 0.0
12/06:32pm WSW 15 28 - - - - - - - 11.6 1012.6 0.0
12/06:30pm WSW 14 28 - - - - - - - 11.4 1012.6 0.0
12/06:19pm SW 16 26 - - - - - - - 11.6 1012.4 0.0
12/06:00pm SW 12 21 - - - - - - - 11.8 1012.4 0.0
12/05:30pm SW 17 25 - - - - - - - 12.0 1011.6 0.0
12/05:18pm SW 18 28 - - - - - - - 12.5 1011.1 0.0
12/05:00pm SW 16 22 - - - - - - - 12.7 1011.0 0.0
12/04:30pm SSW 13 18 - - - - - - - 13.5 1010.4 0.0
12/04:00pm SW 17 24 - - - - - - - 14.0 1009.8 0.0

Other formats

Comma delimited format used in spreadsheet applications
http://www.bom.gov.au/fwo/IDT60701/IDT60701.95988.axf

JavaScript Object Notation format (JSON) in row-major order
http://www.bom.gov.au/fwo/IDT60701/IDT60701.95988.json

Data quality

Most of these data are generated automatically and are frequently updated. Quality checks on data are not normally performed. It is possible for incorrect values to appear. Refer to information at About Latest Weather Observations and please check the disclaimer before using these data.